SAZ62 LIPH-LSZB
Flight info
| Callsign | SAZ62 |
|---|---|
| Flight time | 0h 43m |
| Altitude | 22000 |
| Route | VIC DCT VADIK L615 ADOSA P131 RESIA Z50 PELAD DCT MONIN |
| Aircraft | CL60/M-SADE3FGHIJ3J4J7P2RWXY/HB1D1 |
Departure
| Time | 2026-04-28 15:04 |
|---|---|
| Airport | Treviso Airport (LIPH) |
Arrival
| Time | 2026-04-28 15:48 |
|---|---|
| Airport | Bern Airport (LSZB) |
| Time | Latitude | Longitude | Altitude | Speed | Heading |
|---|---|---|---|---|---|
| 2026-04-28 14:33 | 45.65288 | 12.20131 | 51 ft | 0 kts | 249° |
| 2026-04-28 15:01 | 45.65288 | 12.20130 | 51 ft | 0 kts | 249° |
| 2026-04-28 15:02 | 45.65264 | 12.20106 | 50 ft | 7 kts | 173° |
| 2026-04-28 15:02 | 45.65250 | 12.20190 | 50 ft | 12 kts | 64° |
| 2026-04-28 15:02 | 45.65289 | 12.20333 | 49 ft | 18 kts | 70° |
| 2026-04-28 15:02 | 45.65340 | 12.20526 | 49 ft | 22 kts | 70° |
| 2026-04-28 15:03 | 45.65379 | 12.20673 | 48 ft | 3 kts | 71° |
| 2026-04-28 15:03 | 45.65374 | 12.20721 | 48 ft | 7 kts | 136° |
| 2026-04-28 15:03 | 45.65316 | 12.20757 | 48 ft | 11 kts | 156° |
| 2026-04-28 15:03 | 45.65228 | 12.20798 | 48 ft | 15 kts | 179° |
| 2026-04-28 15:04 | 45.65202 | 12.20757 | 47 ft | 8 kts | 258° |
| 2026-04-28 15:04 | 45.65173 | 12.20631 | 46 ft | 31 kts | 249° |
| 2026-04-28 15:04 | 45.64939 | 12.19744 | 50 ft | 151 kts | 248° |
| 2026-04-28 15:04 | 45.64520 | 12.18146 | 730 ft | 189 kts | 249° |
| 2026-04-28 15:05 | 45.64039 | 12.16320 | 1758 ft | 212 kts | 250° |
| 2026-04-28 15:05 | 45.63528 | 12.14308 | 2791 ft | 234 kts | 254° |
| 2026-04-28 15:05 | 45.63160 | 12.12008 | 3675 ft | 241 kts | 265° |
| 2026-04-28 15:05 | 45.63208 | 12.09677 | 4726 ft | 237 kts | 279° |
| 2026-04-28 15:06 | 45.63451 | 12.07380 | 5866 ft | 243 kts | 271° |
| 2026-04-28 15:06 | 45.63467 | 12.04955 | 7043 ft | 260 kts | 268° |
| 2026-04-28 15:06 | 45.63454 | 12.02274 | 7952 ft | 280 kts | 268° |
| 2026-04-28 15:06 | 45.63443 | 11.99478 | 8827 ft | 282 kts | 268° |
| 2026-04-28 15:07 | 45.63439 | 11.96713 | 9699 ft | 280 kts | 268° |
| 2026-04-28 15:07 | 45.63443 | 11.93966 | 10570 ft | 280 kts | 269° |
| 2026-04-28 15:07 | 45.63467 | 11.91193 | 11413 ft | 284 kts | 270° |
| 2026-04-28 15:07 | 45.63500 | 11.88410 | 12226 ft | 284 kts | 271° |
| 2026-04-28 15:08 | 45.63533 | 11.85600 | 13099 ft | 291 kts | 271° |
| 2026-04-28 15:08 | 45.63568 | 11.82595 | 13920 ft | 315 kts | 271° |
| 2026-04-28 15:08 | 45.63650 | 11.75588 | 16458 ft | 333 kts | 271° |
| 2026-04-28 15:09 | 45.63689 | 11.72288 | 17627 ft | 338 kts | 271° |
| 2026-04-28 15:09 | 45.63728 | 11.68948 | 18763 ft | 343 kts | 271° |
| 2026-04-28 15:09 | 45.63770 | 11.65518 | 19802 ft | 349 kts | 271° |
| 2026-04-28 15:09 | 45.63800 | 11.63233 | 20473 ft | 352 kts | 271° |
| 2026-04-28 15:10 | 45.63860 | 11.58546 | 21556 ft | 364 kts | 271° |
| 2026-04-28 15:10 | 45.63907 | 11.54879 | 21957 ft | 380 kts | 271° |
| 2026-04-28 15:10 | 45.63955 | 11.51010 | 22040 ft | 394 kts | 271° |
| 2026-04-28 15:10 | 45.64003 | 11.47084 | 22039 ft | 393 kts | 271° |
| 2026-04-28 15:11 | 45.64048 | 11.43201 | 22043 ft | 390 kts | 272° |
| 2026-04-28 15:11 | 45.64093 | 11.39377 | 22039 ft | 389 kts | 272° |
| 2026-04-28 15:11 | 45.64150 | 11.35532 | 22042 ft | 388 kts | 274° |
| 2026-04-28 15:11 | 45.64701 | 11.31792 | 22053 ft | 387 kts | 290° |
| 2026-04-28 15:12 | 45.66014 | 11.28444 | 22038 ft | 388 kts | 302° |
| 2026-04-28 15:12 | 45.67525 | 11.25212 | 22046 ft | 389 kts | 302° |
| 2026-04-28 15:12 | 45.69007 | 11.22022 | 22060 ft | 389 kts | 302° |
| 2026-04-28 15:12 | 45.70515 | 11.18768 | 22064 ft | 390 kts | 302° |
| 2026-04-28 15:13 | 45.71998 | 11.15563 | 22058 ft | 390 kts | 302° |
| 2026-04-28 15:13 | 45.73487 | 11.12344 | 22068 ft | 391 kts | 302° |
| 2026-04-28 15:13 | 45.74994 | 11.09079 | 22064 ft | 391 kts | 302° |
| 2026-04-28 15:13 | 45.76492 | 11.05833 | 22073 ft | 391 kts | 302° |
| 2026-04-28 15:14 | 45.77978 | 11.02606 | 22070 ft | 391 kts | 302° |
| 2026-04-28 15:14 | 45.79470 | 10.99364 | 22071 ft | 391 kts | 302° |
| 2026-04-28 15:14 | 45.80973 | 10.96094 | 22072 ft | 391 kts | 302° |
| 2026-04-28 15:14 | 45.82458 | 10.92861 | 22069 ft | 391 kts | 302° |
| 2026-04-28 15:15 | 45.83946 | 10.89614 | 22071 ft | 391 kts | 302° |
| 2026-04-28 15:15 | 45.84945 | 10.87434 | 22075 ft | 391 kts | 302° |
| 2026-04-28 15:15 | 45.86931 | 10.83092 | 22073 ft | 390 kts | 302° |
| 2026-04-28 15:15 | 45.88392 | 10.79895 | 22341 ft | 377 kts | 303° |
| 2026-04-28 15:16 | 45.89810 | 10.76789 | 22938 ft | 379 kts | 302° |
| 2026-04-28 15:16 | 45.91253 | 10.73622 | 23812 ft | 383 kts | 302° |
| 2026-04-28 15:16 | 45.92707 | 10.70451 | 24909 ft | 380 kts | 303° |
| 2026-04-28 15:16 | 45.94474 | 10.67651 | 25877 ft | 383 kts | 316° |
| 2026-04-28 15:17 | 45.96547 | 10.65212 | 26643 ft | 388 kts | 318° |
| 2026-04-28 15:17 | 45.98644 | 10.62761 | 27380 ft | 392 kts | 317° |
| 2026-04-28 15:17 | 46.00759 | 10.60277 | 27926 ft | 400 kts | 318° |
| 2026-04-28 15:17 | 46.02947 | 10.57704 | 28079 ft | 416 kts | 318° |
| 2026-04-28 15:18 | 46.05236 | 10.55008 | 28090 ft | 429 kts | 318° |
| 2026-04-28 15:18 | 46.09909 | 10.49506 | 28096 ft | 428 kts | 318° |
| 2026-04-28 15:19 | 46.14503 | 10.44086 | 28107 ft | 423 kts | 318° |
| 2026-04-28 15:19 | 46.19035 | 10.38720 | 28112 ft | 424 kts | 317° |
| 2026-04-28 15:20 | 46.23563 | 10.33346 | 28110 ft | 424 kts | 317° |
| 2026-04-28 15:20 | 46.28103 | 10.27945 | 28113 ft | 423 kts | 317° |
| 2026-04-28 15:21 | 46.32635 | 10.22541 | 28120 ft | 423 kts | 317° |
| 2026-04-28 15:21 | 46.37173 | 10.17117 | 28109 ft | 423 kts | 317° |
| 2026-04-28 15:22 | 46.41681 | 10.11716 | 28100 ft | 423 kts | 317° |
| 2026-04-28 15:22 | 46.46201 | 10.06285 | 28113 ft | 422 kts | 316° |
| 2026-04-28 15:22 | 46.48194 | 10.03216 | 28126 ft | 416 kts | 302° |
| 2026-04-28 15:23 | 46.49644 | 9.99629 | 28124 ft | 414 kts | 296° |
| 2026-04-28 15:23 | 46.52413 | 9.92328 | 28141 ft | 414 kts | 298° |
| 2026-04-28 15:24 | 46.55195 | 9.85017 | 28138 ft | 413 kts | 296° |
| 2026-04-28 15:24 | 46.57956 | 9.77734 | 28112 ft | 413 kts | 296° |
| 2026-04-28 15:25 | 46.60024 | 9.70079 | 28135 ft | 410 kts | 277° |
| 2026-04-28 15:25 | 46.60500 | 9.61824 | 28107 ft | 409 kts | 275° |
| 2026-04-28 15:26 | 46.60953 | 9.53600 | 28087 ft | 410 kts | 275° |
| 2026-04-28 15:26 | 46.61405 | 9.45313 | 28083 ft | 409 kts | 274° |
| 2026-04-28 15:27 | 46.61850 | 9.37106 | 28073 ft | 409 kts | 275° |
| 2026-04-28 15:27 | 46.62294 | 9.28816 | 28072 ft | 410 kts | 274° |
| 2026-04-28 15:28 | 46.62730 | 9.20551 | 28069 ft | 410 kts | 274° |
| 2026-04-28 15:28 | 46.63158 | 9.12308 | 28073 ft | 410 kts | 274° |
| 2026-04-28 15:29 | 46.63580 | 9.04035 | 28075 ft | 408 kts | 274° |
| 2026-04-28 15:29 | 46.63782 | 9.00019 | 27926 ft | 396 kts | 274° |
| 2026-04-28 15:29 | 46.63978 | 8.96091 | 27733 ft | 385 kts | 274° |
| 2026-04-28 15:29 | 46.64170 | 8.92223 | 27531 ft | 380 kts | 274° |
| 2026-04-28 15:30 | 46.64359 | 8.88386 | 27334 ft | 378 kts | 273° |
| 2026-04-28 15:30 | 46.64545 | 8.84594 | 27131 ft | 378 kts | 273° |
| 2026-04-28 15:30 | 46.64731 | 8.80784 | 26930 ft | 377 kts | 273° |
| 2026-04-28 15:30 | 46.64913 | 8.77003 | 26722 ft | 376 kts | 273° |
| 2026-04-28 15:31 | 46.65094 | 8.73229 | 26526 ft | 376 kts | 273° |
| 2026-04-28 15:31 | 46.65274 | 8.69470 | 26388 ft | 374 kts | 274° |
| 2026-04-28 15:31 | 46.65453 | 8.65695 | 26269 ft | 375 kts | 274° |
| 2026-04-28 15:31 | 46.65633 | 8.61877 | 26019 ft | 376 kts | 274° |
| 2026-04-28 15:32 | 46.65809 | 8.58105 | 25528 ft | 375 kts | 273° |
| 2026-04-28 15:32 | 46.65926 | 8.55609 | 25199 ft | 373 kts | 273° |
| 2026-04-28 15:32 | 46.66157 | 8.50602 | 24549 ft | 370 kts | 273° |
| 2026-04-28 15:32 | 46.66327 | 8.46895 | 24075 ft | 367 kts | 273° |
| 2026-04-28 15:33 | 46.66494 | 8.43225 | 23606 ft | 366 kts | 272° |
| 2026-04-28 15:33 | 46.66662 | 8.39533 | 23155 ft | 364 kts | 273° |
| 2026-04-28 15:33 | 46.66826 | 8.35876 | 22661 ft | 363 kts | 273° |
| 2026-04-28 15:33 | 46.66988 | 8.32229 | 22199 ft | 361 kts | 272° |
| 2026-04-28 15:34 | 46.67149 | 8.28580 | 21734 ft | 361 kts | 272° |
| 2026-04-28 15:34 | 46.67307 | 8.24988 | 21248 ft | 359 kts | 272° |
| 2026-04-28 15:34 | 46.67464 | 8.21381 | 20769 ft | 357 kts | 272° |
| 2026-04-28 15:34 | 46.67621 | 8.17751 | 20297 ft | 356 kts | 272° |
| 2026-04-28 15:35 | 46.67775 | 8.14184 | 19830 ft | 356 kts | 272° |
| 2026-04-28 15:35 | 46.68078 | 8.07062 | 18892 ft | 354 kts | 272° |
| 2026-04-28 15:35 | 46.68229 | 8.03492 | 18433 ft | 353 kts | 272° |
| 2026-04-28 15:36 | 46.68601 | 7.99969 | 17952 ft | 353 kts | 285° |
| 2026-04-28 15:36 | 46.69657 | 7.96790 | 17469 ft | 355 kts | 303° |
| 2026-04-28 15:36 | 46.71212 | 7.93989 | 16969 ft | 356 kts | 308° |
| 2026-04-28 15:36 | 46.72798 | 7.91247 | 16492 ft | 354 kts | 308° |
| 2026-04-28 15:37 | 46.74369 | 7.88520 | 16033 ft | 353 kts | 308° |
| 2026-04-28 15:37 | 46.75951 | 7.85771 | 15555 ft | 352 kts | 309° |
| 2026-04-28 15:37 | 46.77520 | 7.83039 | 15103 ft | 350 kts | 308° |
| 2026-04-28 15:37 | 46.78565 | 7.81219 | 14788 ft | 351 kts | 309° |
| 2026-04-28 15:38 | 46.80629 | 7.77622 | 14184 ft | 346 kts | 308° |
| 2026-04-28 15:38 | 46.82162 | 7.74949 | 13711 ft | 343 kts | 309° |
| 2026-04-28 15:38 | 46.83685 | 7.72285 | 13256 ft | 338 kts | 310° |
| 2026-04-28 15:38 | 46.85159 | 7.69710 | 12830 ft | 333 kts | 309° |
| 2026-04-28 15:39 | 46.86762 | 7.67276 | 12377 ft | 327 kts | 323° |
| 2026-04-28 15:39 | 46.88686 | 7.65653 | 11940 ft | 321 kts | 335° |
| 2026-04-28 15:39 | 46.90686 | 7.64212 | 11505 ft | 315 kts | 335° |
| 2026-04-28 15:39 | 46.92606 | 7.62813 | 11115 ft | 308 kts | 335° |
| 2026-04-28 15:40 | 46.94525 | 7.61413 | 10692 ft | 304 kts | 335° |
| 2026-04-28 15:40 | 46.96304 | 7.59843 | 10295 ft | 301 kts | 325° |
| 2026-04-28 15:40 | 46.97927 | 7.57942 | 9892 ft | 297 kts | 324° |
| 2026-04-28 15:40 | 46.99516 | 7.56077 | 9499 ft | 292 kts | 324° |
| 2026-04-28 15:41 | 47.01100 | 7.54223 | 9127 ft | 289 kts | 322° |
| 2026-04-28 15:41 | 47.02671 | 7.52383 | 8733 ft | 286 kts | 323° |
| 2026-04-28 15:41 | 47.04206 | 7.50576 | 8345 ft | 283 kts | 324° |
| 2026-04-28 15:41 | 47.05727 | 7.48785 | 7892 ft | 273 kts | 323° |
| 2026-04-28 15:42 | 47.07173 | 7.47078 | 7598 ft | 262 kts | 323° |
| 2026-04-28 15:42 | 47.08548 | 7.45410 | 7245 ft | 255 kts | 317° |
| 2026-04-28 15:42 | 47.09561 | 7.43305 | 6878 ft | 250 kts | 294° |
| 2026-04-28 15:42 | 47.09911 | 7.40864 | 6523 ft | 245 kts | 270° |
| 2026-04-28 15:43 | 47.09670 | 7.38428 | 6139 ft | 242 kts | 255° |
| 2026-04-28 15:43 | 47.08915 | 7.36271 | 5816 ft | 237 kts | 228° |
| 2026-04-28 15:43 | 47.07616 | 7.34797 | 5490 ft | 235 kts | 206° |
| 2026-04-28 15:43 | 47.06104 | 7.33950 | 5176 ft | 232 kts | 187° |
| 2026-04-28 15:44 | 47.04554 | 7.34115 | 4819 ft | 221 kts | 160° |
| 2026-04-28 15:44 | 47.03271 | 7.35213 | 4499 ft | 212 kts | 139° |
| 2026-04-28 15:44 | 47.02140 | 7.36604 | 4176 ft | 207 kts | 137° |
| 2026-04-28 15:44 | 47.01080 | 7.37899 | 4002 ft | 191 kts | 137° |
| 2026-04-28 15:45 | 47.00109 | 7.39079 | 4006 ft | 170 kts | 137° |
| 2026-04-28 15:45 | 46.99212 | 7.40178 | 3974 ft | 169 kts | 137° |
| 2026-04-28 15:45 | 46.98351 | 7.41232 | 3848 ft | 153 kts | 137° |
| 2026-04-28 15:45 | 46.97568 | 7.42189 | 3589 ft | 140 kts | 137° |
| 2026-04-28 15:46 | 46.96853 | 7.43065 | 3381 ft | 131 kts | 136° |
| 2026-04-28 15:46 | 46.96160 | 7.43917 | 3151 ft | 131 kts | 136° |
| 2026-04-28 15:46 | 46.95449 | 7.44789 | 2910 ft | 132 kts | 137° |
| 2026-04-28 15:46 | 46.94750 | 7.45644 | 2691 ft | 131 kts | 138° |
| 2026-04-28 15:47 | 46.94052 | 7.46498 | 2457 ft | 131 kts | 138° |
| 2026-04-28 15:47 | 46.93358 | 7.47356 | 2236 ft | 131 kts | 138° |
| 2026-04-28 15:47 | 46.92662 | 7.48206 | 2013 ft | 130 kts | 139° |
| 2026-04-28 15:47 | 46.91962 | 7.49052 | 1775 ft | 129 kts | 140° |
| 2026-04-28 15:48 | 46.91301 | 7.49852 | 1685 ft | 106 kts | 140° |
| 2026-04-28 15:48 | 46.90945 | 7.50282 | 1687 ft | 35 kts | 140° |
| 2026-04-28 15:48 | 46.90926 | 7.50392 | 1687 ft | 6 kts | 46° |
| 2026-04-28 15:48 | 46.90962 | 7.50405 | 1687 ft | 1 kts | 346° |
| 2026-04-28 15:49 | 46.90984 | 7.50384 | 1687 ft | 6 kts | 316° |
| 2026-04-28 15:49 | 46.91029 | 7.50333 | 1687 ft | 10 kts | 330° |
| 2026-04-28 15:49 | 46.91093 | 7.50259 | 1687 ft | 13 kts | 318° |
| 2026-04-28 15:49 | 46.91171 | 7.50158 | 1687 ft | 11 kts | 323° |
| 2026-04-28 15:50 | 46.91198 | 7.50175 | 1687 ft | 5 kts | 72° |
| 2026-04-28 15:50 | 46.91200 | 7.50209 | 1687 ft | 0 kts | 114° |
| 2026-04-28 15:50 | 46.91186 | 7.50217 | 1687 ft | 3 kts | 201° |
| 2026-04-28 15:50 | 46.91178 | 7.50205 | 1687 ft | 0 kts | 229° |